Ouro Preto, Brazil
Current Conditions -  °F | °C
As of 4:00 PM on Friday 21 Nov 2014 (Local Time) from SBPR Reporting Station
Few Clouds Few Clouds  
Wind Chill: 90°   Ceiling: Unl
Heat Index: 90°   Visibility: 6mi
Dew Point: 54°   Wind: 0mph
Humidity: 29%   Direction: NA
Pressure: 30"   Gusts: NA
Location:  20.29°S, 43.51°W
Report Text: SBPR 211800Z 00000KT 9999 FEW025 32/12 Q1016
Loading
Personal Weather Stations






























Interactive Weather Map New forecast layout! Learn more

10-Day Weather Forecast

Advertisements
Track Severe Weather on mobile